الصفحة الرئيسية
METAR-TAF:

METAR-TAF

مطار :

سافونلينا, فنلندا

دائرة عرض: 61-57N, خط طول: 028-57E, ارتفاع: 95 متر

مراقبة الطقس الحالي

تاريخ ووقت الإصدار 1ساعة و 1 دقيقة قبل الساعة 23:50UTC
ريح 6 عقدة من الشرق/الشمال الشرقي
درجة الحرارة 18°درجة مئوية
الرطوبة 88%
ضغط 1014 hPa
الرؤية 10 كم أو أكثر
الغيوم لا تقل 1500 م ولا وجود لمزنة ركامية السحاب الأسود

METAR: EFSA 132350Z AUTO 06006KT CAVOK 18/16 Q1014

زمن: 03:51 (00:51 UTC)

توقعات

تاريخ ووقت الإصدار 13ساعات و 25 دقيقة قبل الساعة 11:26UTC
التوقعات صالحة من13 الساعة 12 UTC إلى 13 الساعة 15 UTC
ريح 9 عقدة من الشمال الغربي
الرؤية 10 كم أو أكثر
غيوم قليلة على ارتفاع 4500 قدم
نظرية الاحتمالات 30% :
مؤقت
من 13 الساعة 13 UTC إلى 13 الساعة 15 UTC
غيوم قليلة على ارتفاع 4500 قدم, مزن ركامية عمودية.

TAF: EFSA 131126Z 1312/1315 32009KT 9999 FEW045 PROB30 TEMPO 1313/1315 FEW045TCU

أرصاد الطقس والتوقعات من أكثر من 4000 مطار (تقارير الطقس للمطار METAR والتنبؤ بالطقس بالمطارTAF).

المحطات المتاحة هي النقط الصفراء والحمراء على الخريطة.

حرك المؤشر فوق النقطة لمعرفة اسم المحطة.

ثم انقر لمعرفة أرصاد وتوقعات الطقس.

لتغيير الخارطة: اضغط على الأزرار الخضراء مع رمز الصليب الأسود للتكبير. على الزر الأخضر مع شرطة للتصغير، أو على الأسهم الخضراء للخرائط المجاورة.


METAR-TAF: